CFG9VA EDDH-LEPA
Flight info
| Callsign | CFG9VA |
|---|---|
| Flight time | N/A |
| Altitude | 37000 |
| Route | HABFU1C HABFU Y348 MAWEQ Z718 OSNAD DCT LIRSU DCT LIMGO DCT SUTAL DCT GTQ DCT POGOL DCT LASAT DCT MOROK DCT GILIR DCT GEVEA DCT INCUS DCT BALSI DCT RETNO DCT TUPOX DCT MTG DCT DIVKO DCT VATIR N852 VERSO DCT LUNIK |
| Aircraft | A320/M-SDGHIJ1RWXY/LB1 |
Departure
| Time | 2026-05-07 13:17 |
|---|---|
| Airport | Hamburg Helmut Schmidt Airport (EDDH) |
Arrival
| Time | N/A |
|---|---|
| Airport | Palma de Mallorca Airport (LEPA) |
| Time | Latitude | Longitude | Altitude | Speed | Heading |
|---|---|---|---|---|---|
| 2026-05-07 12:48 | 53.63113 | 10.00374 | 61 ft | 0 kts | 86° |
| 2026-05-07 13:02 | 53.63113 | 10.00366 | 61 ft | 2 kts | 87° |
| 2026-05-07 13:02 | 53.63112 | 10.00341 | 61 ft | 2 kts | 86° |
| 2026-05-07 13:03 | 53.63111 | 10.00316 | 61 ft | 2 kts | 86° |
| 2026-05-07 13:03 | 53.63110 | 10.00290 | 61 ft | 2 kts | 88° |
| 2026-05-07 13:03 | 53.63115 | 10.00268 | 61 ft | 2 kts | 137° |
| 2026-05-07 13:03 | 53.63128 | 10.00256 | 61 ft | 2 kts | 178° |
| 2026-05-07 13:04 | 53.63143 | 10.00257 | 61 ft | 2 kts | 174° |
| 2026-05-07 13:04 | 53.63158 | 10.00254 | 61 ft | 2 kts | 176° |
| 2026-05-07 13:04 | 53.63173 | 10.00252 | 61 ft | 2 kts | 175° |
| 2026-05-07 13:04 | 53.63188 | 10.00250 | 61 ft | 2 kts | 176° |
| 2026-05-07 13:05 | 53.63203 | 10.00249 | 61 ft | 2 kts | 175° |
| 2026-05-07 13:05 | 53.63218 | 10.00247 | 61 ft | 2 kts | 175° |
| 2026-05-07 13:05 | 53.63233 | 10.00245 | 61 ft | 2 kts | 175° |
| 2026-05-07 13:05 | 53.63248 | 10.00243 | 61 ft | 2 kts | 175° |
| 2026-05-07 13:06 | 53.63263 | 10.00241 | 61 ft | 2 kts | 175° |
| 2026-05-07 13:06 | 53.63277 | 10.00239 | 61 ft | 2 kts | 176° |
| 2026-05-07 13:06 | 53.63293 | 10.00237 | 61 ft | 2 kts | 175° |
| 2026-05-07 13:06 | 53.63295 | 10.00237 | 61 ft | 0 kts | 175° |
| 2026-05-07 13:08 | 53.63288 | 10.00238 | 61 ft | 2 kts | 176° |
| 2026-05-07 13:08 | 53.63251 | 10.00241 | 61 ft | 9 kts | 175° |
| 2026-05-07 13:08 | 53.63167 | 10.00254 | 61 ft | 13 kts | 174° |
| 2026-05-07 13:09 | 53.63072 | 10.00255 | 61 ft | 13 kts | 198° |
| 2026-05-07 13:09 | 53.62987 | 10.00174 | 61 ft | 14 kts | 213° |
| 2026-05-07 13:09 | 53.62903 | 10.00085 | 61 ft | 13 kts | 212° |
| 2026-05-07 13:09 | 53.62837 | 9.99994 | 61 ft | 12 kts | 211° |
| 2026-05-07 13:10 | 53.62755 | 9.99916 | 61 ft | 14 kts | 208° |
| 2026-05-07 13:10 | 53.62659 | 9.99814 | 61 ft | 18 kts | 229° |
| 2026-05-07 13:10 | 53.62619 | 9.99585 | 61 ft | 22 kts | 258° |
| 2026-05-07 13:10 | 53.62588 | 9.99312 | 61 ft | 25 kts | 260° |
| 2026-05-07 13:11 | 53.62556 | 9.99024 | 61 ft | 24 kts | 259° |
| 2026-05-07 13:11 | 53.62524 | 9.98744 | 61 ft | 24 kts | 258° |
| 2026-05-07 13:11 | 53.62493 | 9.98472 | 61 ft | 23 kts | 259° |
| 2026-05-07 13:11 | 53.62458 | 9.98207 | 61 ft | 22 kts | 252° |
| 2026-05-07 13:12 | 53.62377 | 9.97983 | 61 ft | 22 kts | 230° |
| 2026-05-07 13:12 | 53.62278 | 9.97784 | 61 ft | 21 kts | 230° |
| 2026-05-07 13:12 | 53.62188 | 9.97594 | 61 ft | 15 kts | 243° |
| 2026-05-07 13:12 | 53.62187 | 9.97462 | 61 ft | 8 kts | 294° |
| 2026-05-07 13:13 | 53.62204 | 9.97420 | 61 ft | 1 kts | 313° |
| 2026-05-07 13:13 | 53.62206 | 9.97418 | 61 ft | 0 kts | 313° |
| 2026-05-07 13:15 | 53.62249 | 9.97357 | 61 ft | 11 kts | 321° |
| 2026-05-07 13:15 | 53.62291 | 9.97318 | 61 ft | 1 kts | 43° |
| 2026-05-07 13:15 | 53.62293 | 9.97320 | 61 ft | 0 kts | 51° |
| 2026-05-07 13:16 | 53.62339 | 9.97413 | 61 ft | 38 kts | 50° |
| 2026-05-07 13:16 | 53.62658 | 9.98062 | 61 ft | 103 kts | 50° |
| 2026-05-07 13:17 | 53.63243 | 9.99238 | 64 ft | 155 kts | 50° |
| 2026-05-07 13:17 | 53.63929 | 10.00604 | 657 ft | 147 kts | 53° |
| 2026-05-07 13:17 | 53.64581 | 10.01940 | 1135 ft | 153 kts | 52° |
| 2026-05-07 13:17 | 53.65256 | 10.03317 | 1699 ft | 154 kts | 51° |
| 2026-05-07 13:18 | 53.65961 | 10.04750 | 2057 ft | 164 kts | 51° |
| 2026-05-07 13:18 | 53.66719 | 10.06295 | 2355 ft | 179 kts | 52° |
| 2026-05-07 13:18 | 53.67543 | 10.07974 | 2659 ft | 194 kts | 51° |
| 2026-05-07 13:18 | 53.68559 | 10.09559 | 3035 ft | 208 kts | 30° |
| 2026-05-07 13:19 | 53.70006 | 10.10145 | 3495 ft | 223 kts | 359° |
| 2026-05-07 13:19 | 53.71481 | 10.09395 | 4144 ft | 231 kts | 330° |
| 2026-05-07 13:19 | 53.72602 | 10.07366 | 4501 ft | 253 kts | 301° |
| 2026-05-07 13:19 | 53.73414 | 10.04598 | 4880 ft | 270 kts | 298° |
| 2026-05-07 13:20 | 53.74254 | 10.01679 | 5456 ft | 279 kts | 298° |
| 2026-05-07 13:20 | 53.74992 | 9.98687 | 6187 ft | 283 kts | 283° |
| 2026-05-07 13:20 | 53.74898 | 9.95411 | 6920 ft | 287 kts | 251° |
| 2026-05-07 13:20 | 53.74110 | 9.92306 | 7721 ft | 287 kts | 245° |
| 2026-05-07 13:21 | 53.73288 | 9.89250 | 8477 ft | 289 kts | 246° |
| 2026-05-07 13:21 | 53.72484 | 9.86191 | 9234 ft | 290 kts | 246° |
| 2026-05-07 13:21 | 53.71681 | 9.83088 | 9976 ft | 292 kts | 247° |
| 2026-05-07 13:21 | 53.70875 | 9.79940 | 10603 ft | 297 kts | 247° |
| 2026-05-07 13:22 | 53.70034 | 9.76638 | 10932 ft | 314 kts | 247° |
| 2026-05-07 13:22 | 53.69157 | 9.73188 | 11252 ft | 329 kts | 247° |
| 2026-05-07 13:22 | 53.68252 | 9.69640 | 11797 ft | 335 kts | 247° |
| 2026-05-07 13:22 | 53.67323 | 9.66003 | 12478 ft | 336 kts | 247° |
| 2026-05-07 13:23 | 53.66401 | 9.62398 | 13149 ft | 338 kts | 247° |
| 2026-05-07 13:23 | 53.65189 | 9.59026 | 13703 ft | 342 kts | 226° |
| 2026-05-07 13:23 | 53.63237 | 9.56716 | 14320 ft | 344 kts | 209° |
| 2026-05-07 13:23 | 53.61117 | 9.54885 | 14930 ft | 346 kts | 207° |
| 2026-05-07 13:24 | 53.58975 | 9.53057 | 15486 ft | 350 kts | 208° |
| 2026-05-07 13:24 | 53.56818 | 9.51172 | 16006 ft | 353 kts | 209° |
| 2026-05-07 13:24 | 53.54637 | 9.49222 | 16533 ft | 356 kts | 209° |
| 2026-05-07 13:24 | 53.52438 | 9.47226 | 17059 ft | 358 kts | 210° |
| 2026-05-07 13:25 | 53.50254 | 9.45228 | 17575 ft | 361 kts | 210° |
| 2026-05-07 13:25 | 53.48048 | 9.43201 | 18083 ft | 363 kts | 210° |
| 2026-05-07 13:25 | 53.45837 | 9.41163 | 18576 ft | 366 kts | 210° |
| 2026-05-07 13:25 | 53.43628 | 9.39125 | 19059 ft | 368 kts | 210° |
| 2026-05-07 13:26 | 53.41381 | 9.37052 | 19530 ft | 370 kts | 210° |
| 2026-05-07 13:26 | 53.39124 | 9.34971 | 19997 ft | 372 kts | 209° |
| 2026-05-07 13:26 | 53.36826 | 9.32854 | 20469 ft | 374 kts | 209° |
| 2026-05-07 13:26 | 53.34565 | 9.30773 | 20911 ft | 377 kts | 209° |
| 2026-05-07 13:27 | 53.32246 | 9.28641 | 21352 ft | 379 kts | 209° |
| 2026-05-07 13:27 | 53.29939 | 9.26523 | 21784 ft | 381 kts | 209° |
| 2026-05-07 13:27 | 53.27620 | 9.24396 | 22215 ft | 383 kts | 209° |
| 2026-05-07 13:27 | 53.25297 | 9.22268 | 22634 ft | 385 kts | 209° |
| 2026-05-07 13:28 | 53.22947 | 9.20117 | 23042 ft | 386 kts | 209° |
| 2026-05-07 13:28 | 53.20597 | 9.17970 | 23456 ft | 388 kts | 209° |
| 2026-05-07 13:28 | 53.18245 | 9.15824 | 23854 ft | 389 kts | 209° |
| 2026-05-07 13:28 | 53.15851 | 9.13642 | 24249 ft | 391 kts | 209° |
| 2026-05-07 13:29 | 53.13477 | 9.11481 | 24618 ft | 393 kts | 209° |
| 2026-05-07 13:29 | 53.11068 | 9.09290 | 24962 ft | 396 kts | 209° |
| 2026-05-07 13:29 | 53.08649 | 9.07096 | 25299 ft | 398 kts | 209° |
| 2026-05-07 13:29 | 53.06200 | 9.04875 | 25627 ft | 401 kts | 209° |
| 2026-05-07 13:30 | 53.03767 | 9.02670 | 25935 ft | 403 kts | 209° |
| 2026-05-07 13:30 | 53.01298 | 9.00436 | 26251 ft | 406 kts | 209° |
| 2026-05-07 13:30 | 52.98798 | 8.98179 | 26573 ft | 407 kts | 209° |
| 2026-05-07 13:30 | 52.96323 | 8.95946 | 26883 ft | 409 kts | 209° |
| 2026-05-07 13:31 | 52.93821 | 8.93692 | 27165 ft | 412 kts | 209° |
| 2026-05-07 13:31 | 52.91313 | 8.91438 | 27450 ft | 414 kts | 209° |
| 2026-05-07 13:31 | 52.88762 | 8.89147 | 27746 ft | 415 kts | 209° |
| 2026-05-07 13:31 | 52.86237 | 8.86882 | 28012 ft | 418 kts | 209° |
| 2026-05-07 13:32 | 52.83668 | 8.84580 | 28278 ft | 420 kts | 209° |
| 2026-05-07 13:32 | 52.81097 | 8.82279 | 28541 ft | 421 kts | 209° |
| 2026-05-07 13:32 | 52.78528 | 8.79983 | 28793 ft | 423 kts | 209° |
| 2026-05-07 13:32 | 52.75943 | 8.77677 | 29044 ft | 425 kts | 209° |
| 2026-05-07 13:33 | 52.73328 | 8.75349 | 29293 ft | 427 kts | 209° |
| 2026-05-07 13:33 | 52.70741 | 8.73047 | 29521 ft | 428 kts | 209° |
| 2026-05-07 13:33 | 52.68092 | 8.70695 | 29754 ft | 430 kts | 209° |
| 2026-05-07 13:33 | 52.65457 | 8.68357 | 29975 ft | 432 kts | 209° |
| 2026-05-07 13:34 | 52.62813 | 8.66015 | 30193 ft | 433 kts | 209° |
| 2026-05-07 13:34 | 52.57501 | 8.61319 | 30623 ft | 436 kts | 209° |
| 2026-05-07 13:34 | 52.54815 | 8.58949 | 30832 ft | 438 kts | 209° |
| 2026-05-07 13:35 | 52.52168 | 8.56615 | 31027 ft | 439 kts | 209° |
| 2026-05-07 13:35 | 52.49461 | 8.54233 | 31211 ft | 440 kts | 209° |
| 2026-05-07 13:35 | 52.46780 | 8.51877 | 31363 ft | 442 kts | 209° |
| 2026-05-07 13:35 | 52.44047 | 8.49478 | 31529 ft | 442 kts | 209° |
| 2026-05-07 13:36 | 52.41359 | 8.47121 | 31741 ft | 442 kts | 209° |
| 2026-05-07 13:36 | 52.38666 | 8.44765 | 31946 ft | 442 kts | 209° |
| 2026-05-07 13:36 | 52.35927 | 8.42371 | 32144 ft | 442 kts | 209° |
| 2026-05-07 13:36 | 52.33229 | 8.40017 | 32339 ft | 442 kts | 209° |
| 2026-05-07 13:37 | 52.30515 | 8.37651 | 32523 ft | 442 kts | 209° |
| 2026-05-07 13:37 | 52.27824 | 8.35309 | 32708 ft | 442 kts | 209° |
| 2026-05-07 13:37 | 52.25110 | 8.32951 | 32899 ft | 442 kts | 208° |
| 2026-05-07 13:37 | 52.22417 | 8.30616 | 33082 ft | 442 kts | 208° |
| 2026-05-07 13:38 | 52.19738 | 8.28253 | 33262 ft | 441 kts | 210° |
| 2026-05-07 13:38 | 52.17043 | 8.25680 | 33435 ft | 441 kts | 211° |
| 2026-05-07 13:38 | 52.14412 | 8.23168 | 33605 ft | 441 kts | 211° |
| 2026-05-07 13:38 | 52.11769 | 8.20651 | 33781 ft | 441 kts | 211° |
| 2026-05-07 13:39 | 52.09128 | 8.18138 | 33922 ft | 441 kts | 211° |
| 2026-05-07 13:39 | 52.08763 | 8.17791 | 33942 ft | 441 kts | 211° |